createdAt,value
2023-02-24T00:00:52.488Z,97444.31
2023-02-24T00:03:26.950Z,97450.31
2023-02-24T00:06:00.141Z,97444.31
2023-02-24T00:08:33.148Z,97441.78
2023-02-24T00:11:13.146Z,97450.13
2023-02-24T00:13:47.369Z,97444.94
2023-02-24T00:16:20.803Z,97440.53
2023-02-24T00:18:55.241Z,97433.69
2023-02-24T00:21:30.133Z,97433.59
2023-02-24T00:24:04.315Z,97430.28
2023-02-24T00:26:37.598Z,97428.34
2023-02-24T00:29:13.347Z,97426.59
2023-02-24T00:31:47.221Z,97425.63
2023-02-24T00:34:21.679Z,97427.38
2023-02-24T00:36:54.703Z,97428.25
2023-02-24T00:39:30.775Z,97431.69
2023-02-24T00:42:07.111Z,97429.94
2023-02-24T00:44:42.390Z,97426.59
2023-02-24T00:47:17.602Z,97425.00
2023-02-24T00:49:51.963Z,97420.78
2023-02-24T00:52:27.785Z,97421.66
2023-02-24T00:55:00.937Z,97421.66
2023-02-24T00:57:35.385Z,97420.78
2023-02-24T01:00:14.071Z,97413.03
2023-02-24T01:02:47.798Z,97414.66
2023-02-24T01:05:22.182Z,97411.94
2023-02-24T01:07:55.274Z,97411.13
2023-02-24T01:10:28.644Z,97413.56
2023-02-24T01:13:02.889Z,97407.53
2023-02-24T01:15:35.886Z,97405.91
2023-02-24T01:18:11.533Z,97409.53
2023-02-24T01:20:45.899Z,97410.41
2023-02-24T01:23:18.895Z,97405.38
2023-02-24T01:25:51.900Z,97393.53
2023-02-24T01:28:25.122Z,97395.34
2023-02-24T01:31:02.854Z,97392.09
2023-02-24T01:33:37.293Z,97386.22
2023-02-24T01:36:15.099Z,97384.69
2023-02-24T01:38:49.171Z,97378.72
2023-02-24T01:41:27.716Z,97376.09
2023-02-24T01:44:06.081Z,97374.34
2023-02-24T01:46:41.172Z,97373.53
2023-02-24T01:49:20.051Z,97366.84
2023-02-24T01:51:58.840Z,97365.56
2023-02-24T01:54:36.104Z,97368.75
2023-02-24T01:57:09.714Z,97366.97
2023-02-24T01:59:43.008Z,97366.81
2023-02-24T02:02:17.619Z,97367.69
2023-02-24T02:04:54.137Z,97366.09
2023-02-24T02:07:30.716Z,97357.66
2023-02-24T02:10:04.404Z,97356.94
2023-02-24T02:12:44.371Z,97356.78
2023-02-24T02:15:20.545Z,97357.66
2023-02-24T02:18:03.707Z,97360.47
2023-02-24T02:21:26.313Z,97356.50
2023-02-24T02:24:19.315Z,97353.28
2023-02-24T02:27:21.353Z,97357.28
2023-02-24T02:30:45.279Z,97351.81
2023-02-24T02:33:47.967Z,97350.59
2023-02-24T02:36:28.101Z,97353.94
2023-02-24T02:39:13.058Z,97352.81
2023-02-24T02:41:55.997Z,97346.66
2023-02-24T02:44:39.717Z,97343.97
2023-02-24T02:47:23.169Z,97339.72
2023-02-24T02:50:02.316Z,97338.16
2023-02-24T02:52:42.347Z,97334.78
2023-02-24T02:55:21.638Z,97326.34
2023-02-24T02:57:57.952Z,97334.97
2023-02-24T03:00:42.011Z,97328.28
2023-02-24T03:03:19.321Z,97330.88
2023-02-24T03:05:59.671Z,97325.78
2023-02-24T03:08:37.237Z,97327.63
2023-02-24T03:11:16.177Z,97321.91
2023-02-24T03:13:52.574Z,97327.41
2023-02-24T03:16:28.111Z,97323.25
2023-02-24T03:19:07.618Z,97323.25
2023-02-24T03:21:46.869Z,97316.41
2023-02-24T03:24:20.708Z,97303.50
2023-02-24T03:27:02.342Z,97310.09
2023-02-24T03:29:42.628Z,97301.50
2023-02-24T03:32:22.603Z,97303.16
2023-02-24T03:34:59.488Z,97294.63
2023-02-24T03:37:34.121Z,97297.13
2023-02-24T03:40:11.816Z,97299.41
2023-02-24T03:42:49.167Z,97290.75
2023-02-24T03:45:23.154Z,97289.06
2023-02-24T03:47:56.560Z,97294.16
2023-02-24T03:50:31.859Z,97294.16
2023-02-24T03:53:23.332Z,97290.09
2023-02-24T03:56:06.493Z,97285.97
2023-02-24T03:58:58.223Z,97285.25
2023-02-24T04:01:39.100Z,97289.69
2023-02-24T04:04:20.237Z,97288.81
2023-02-24T04:06:59.107Z,97290.41
2023-02-24T04:09:42.896Z,97287.78
2023-02-24T04:12:20.195Z,97281.16
2023-02-24T04:14:59.057Z,97279.66
2023-02-24T04:17:39.811Z,97280.41
2023-02-24T04:20:20.394Z,97281.81
2023-02-24T04:22:59.513Z,97279.34
2023-02-24T04:25:33.960Z,97274.41
2023-02-24T04:28:08.878Z,97272.97
2023-02-24T04:30:46.791Z,97279.09
2023-02-24T04:33:20.632Z,97272.19
2023-02-24T04:35:54.384Z,97268.03
2023-02-24T04:38:27.457Z,97273.28
2023-02-24T04:41:02.973Z,97266.75
2023-02-24T04:43:36.785Z,97272.56
2023-02-24T04:46:09.821Z,97275.38
2023-02-24T04:48:42.847Z,97261.63
2023-02-24T04:51:15.965Z,97260.69
2023-02-24T04:53:55.319Z,97258.06
2023-02-24T04:56:29.875Z,97254.66
2023-02-24T04:59:02.900Z,97255.53
2023-02-24T05:01:36.192Z,97247.88
2023-02-24T05:04:10.103Z,97240.22
2023-02-24T05:06:44.257Z,97237.72
2023-02-24T05:09:18.922Z,97243.78
2023-02-24T05:11:53.762Z,97232.78
2023-02-24T05:14:26.876Z,97235.25
2023-02-24T05:17:00.409Z,97233.59
2023-02-24T05:19:51.536Z,97233.34
2023-02-24T05:22:24.684Z,97230.97
2023-02-24T05:24:58.224Z,97227.38
2023-02-24T05:27:32.646Z,97224.81
2023-02-24T05:30:09.748Z,97224.03
2023-02-24T05:32:43.069Z,97220.69
2023-02-24T05:35:16.098Z,97214.13
2023-02-24T05:37:49.121Z,97209.19
2023-02-24T05:40:24.097Z,97199.84
2023-02-24T05:43:03.019Z,97205.09
2023-02-24T05:45:36.166Z,97205.09
2023-02-24T05:48:09.324Z,97197.25
2023-02-24T05:50:46.112Z,97199.59
2023-02-24T05:53:19.132Z,97198.69
2023-02-24T05:55:52.190Z,97192.75
2023-02-24T05:58:29.062Z,97197.06
2023-02-24T06:01:06.764Z,97191.81
2023-02-24T06:03:41.370Z,97190.06
2023-02-24T06:06:15.981Z,97184.97
2023-02-24T06:08:52.048Z,97189.41
2023-02-24T06:11:25.316Z,97187.66
2023-02-24T06:13:59.873Z,97183.38
2023-02-24T06:16:32.996Z,97187.59
2023-02-24T06:19:07.630Z,97190.22
2023-02-24T06:21:42.839Z,97182.66
2023-02-24T06:24:18.567Z,97184.41
2023-02-24T06:26:53.669Z,97184.50
2023-02-24T06:29:29.555Z,97184.63
2023-02-24T06:32:08.576Z,97177.56
2023-02-24T06:34:41.807Z,97180.88
2023-02-24T06:37:16.460Z,97172.50
2023-02-24T06:39:49.484Z,97176.97
2023-02-24T06:42:22.592Z,97184.78
2023-02-24T06:44:56.962Z,97172.75
2023-02-24T06:47:30.361Z,97175.22
2023-02-24T06:50:05.076Z,97174.44
2023-02-24T06:52:38.128Z,97176.97
2023-02-24T06:55:25.389Z,97167.66
2023-02-24T06:58:04.338Z,97169.53
2023-02-24T07:00:39.197Z,97170.41
2023-02-24T07:03:17.742Z,97164.59
2023-02-24T07:05:54.325Z,97166.25
2023-02-24T07:08:28.280Z,97169.78
2023-02-24T07:11:01.344Z,97167.28
2023-02-24T07:13:36.241Z,97162.41
2023-02-24T07:16:11.950Z,97162.41
2023-02-24T07:18:48.325Z,97164.81
2023-02-24T07:21:23.542Z,97162.13
2023-02-24T07:23:59.042Z,97162.91
2023-02-24T07:26:32.422Z,97158.59
2023-02-24T07:29:06.463Z,97152.06
2023-02-24T07:31:42.882Z,97147.09
2023-02-24T07:34:23.475Z,97145.03
2023-02-24T07:36:57.911Z,97144.91
2023-02-24T07:39:31.031Z,97145.63
2023-02-24T07:42:04.358Z,97140.91
2023-02-24T07:44:38.905Z,97141.84
2023-02-24T07:47:15.626Z,97140.25
2023-02-24T07:49:49.667Z,97143.59
2023-02-24T07:52:22.703Z,97140.84
2023-02-24T07:54:56.156Z,97144.31
2023-02-24T07:57:29.399Z,97139.22
2023-02-24T08:00:16.941Z,97137.72
2023-02-24T08:02:51.764Z,97138.00
2023-02-24T08:05:25.575Z,97130.19
2023-02-24T08:07:58.682Z,97124.72
2023-02-24T08:10:36.869Z,97129.72
2023-02-24T08:13:11.965Z,97119.84
2023-02-24T08:15:45.345Z,97124.94
2023-02-24T08:18:20.201Z,97116.47
2023-02-24T08:20:53.966Z,97117.34
2023-02-24T08:23:27.074Z,97110.34
2023-02-24T08:26:03.310Z,97112.53
2023-02-24T08:28:36.348Z,97112.25
2023-02-24T08:31:10.313Z,97114.59
2023-02-24T08:33:44.919Z,97112.31
2023-02-24T08:36:21.387Z,97101.53
2023-02-24T08:38:57.356Z,97104.00
2023-02-24T08:41:44.921Z,97100.56
2023-02-24T08:44:20.356Z,97101.91
2023-02-24T08:46:54.303Z,97096.19
2023-02-24T08:49:28.758Z,97095.59
2023-02-24T08:52:02.585Z,97090.44
2023-02-24T08:54:48.011Z,97091.19
2023-02-24T08:57:26.000Z,97087.31
2023-02-24T08:59:59.043Z,97083.25
2023-02-24T09:02:37.283Z,97087.44
2023-02-24T09:05:14.589Z,97078.25
2023-02-24T09:07:54.703Z,97078.09
2023-02-24T09:10:28.640Z,97079.13
2023-02-24T09:13:08.674Z,97074.97
2023-02-24T09:15:44.234Z,97079.97
2023-02-24T09:18:17.429Z,97073.41
2023-02-24T09:21:16.132Z,97071.94
2023-02-24T09:23:49.594Z,97067.09
2023-02-24T09:26:22.961Z,97063.31
2023-02-24T09:28:59.086Z,97066.19
2023-02-24T09:31:48.160Z,97063.88
2023-02-24T09:34:30.081Z,97066.91
2023-02-24T09:37:24.078Z,97068.84
2023-02-24T09:40:31.637Z,97058.97
2023-02-24T09:43:11.081Z,97056.53
2023-02-24T09:45:53.480Z,97056.09
2023-02-24T09:48:43.742Z,97066.59
2023-02-24T09:51:22.919Z,97054.41
2023-02-24T09:54:02.097Z,97050.44
2023-02-24T09:56:42.586Z,97047.16
2023-02-24T09:59:27.050Z,97044.00
2023-02-24T10:02:15.081Z,97040.44
2023-02-24T10:05:07.317Z,97039.69
2023-02-24T10:07:44.029Z,97035.97
2023-02-24T10:10:28.147Z,97030.22
2023-02-24T10:13:14.810Z,97034.44
2023-02-24T10:16:05.950Z,97024.47
2023-02-24T10:18:46.963Z,97020.72
2023-02-24T10:21:30.907Z,97027.16
2023-02-24T10:24:14.519Z,97025.41
2023-02-24T10:27:07.924Z,97025.41
2023-02-24T10:30:04.024Z,97014.94
2023-02-24T10:32:47.083Z,97018.06
2023-02-24T10:35:26.018Z,97024.03
2023-02-24T10:38:05.165Z,97023.78
2023-02-24T10:40:52.644Z,97022.31
2023-02-24T10:43:31.565Z,97021.66
2023-02-24T10:46:17.226Z,97017.72
2023-02-24T10:49:00.673Z,97014.78
2023-02-24T10:51:40.372Z,97018.63
2023-02-24T10:54:34.427Z,97016.13
2023-02-24T10:57:15.772Z,97004.03
2023-02-24T11:00:15.559Z,96996.75
2023-02-24T11:03:08.445Z,96998.66
2023-02-24T11:06:08.174Z,96990.78
2023-02-24T11:08:54.369Z,96985.81
2023-02-24T11:11:57.403Z,96990.41
2023-02-24T11:14:48.214Z,96979.97
2023-02-24T11:17:27.314Z,96973.19
2023-02-24T11:20:10.751Z,96980.19
2023-02-24T11:22:45.778Z,96968.47
2023-02-24T11:25:25.856Z,96968.34
2023-02-24T11:27:59.540Z,96964.38
2023-02-24T11:30:45.430Z,96967.41
2023-02-24T11:33:30.450Z,96961.03
2023-02-24T11:36:14.410Z,96947.63
2023-02-24T11:39:08.387Z,96949.13
2023-02-24T11:41:53.826Z,96940.66
2023-02-24T11:44:34.607Z,96927.81
2023-02-24T11:47:14.598Z,96920.56
2023-02-24T11:49:53.529Z,96916.06
2023-02-24T11:52:32.307Z,96914.06
2023-02-24T11:55:16.479Z,96914.06
2023-02-24T11:57:53.669Z,96903.09
2023-02-24T12:00:32.772Z,96907.47
2023-02-24T12:03:15.496Z,96902.84
2023-02-24T12:05:55.010Z,96890.03
2023-02-24T12:08:33.357Z,96886.53
2023-02-24T12:11:13.123Z,96883.28
2023-02-24T12:13:53.822Z,96868.34
2023-02-24T12:16:33.761Z,96877.16
2023-02-24T12:19:18.561Z,96867.47
2023-02-24T12:21:59.469Z,96868.56
2023-02-24T12:24:35.814Z,96871.19
2023-02-24T12:27:22.802Z,96860.28
2023-02-24T12:30:22.747Z,96849.44
2023-02-24T12:33:16.098Z,96828.69
2023-02-24T12:35:56.392Z,96818.41
2023-02-24T12:38:46.175Z,96811.47
2023-02-24T12:41:49.005Z,96810.47
2023-02-24T12:44:33.055Z,96799.31
2023-02-24T12:47:11.746Z,96803.31
2023-02-24T12:50:16.698Z,96792.19
2023-02-24T12:53:00.255Z,96788.22
2023-02-24T12:55:45.530Z,96789.72
2023-02-24T12:58:23.577Z,96775.19
2023-02-24T13:01:08.614Z,96766.84
2023-02-24T13:04:12.898Z,96767.69
2023-02-24T13:07:02.855Z,96776.63
2023-02-24T13:09:44.761Z,96767.81
2023-02-24T13:12:27.178Z,96759.63
2023-02-24T13:15:00.563Z,96762.13
2023-02-24T13:17:33.693Z,96761.66
2023-02-24T13:20:14.343Z,96753.47
2023-02-24T13:22:50.581Z,96755.25
2023-02-24T13:25:31.081Z,96753.56
2023-02-24T13:28:23.814Z,96748.13
2023-02-24T13:31:02.278Z,96744.84
2023-02-24T13:33:39.140Z,96741.25
2023-02-24T13:36:17.219Z,96735.22
2023-02-24T13:38:53.199Z,96732.25
2023-02-24T13:41:41.640Z,96733.06
2023-02-24T13:44:32.760Z,96725.59
2023-02-24T13:47:59.370Z,96717.34
2023-02-24T13:50:42.190Z,96717.78
2023-02-24T13:53:38.135Z,96710.88
2023-02-24T13:56:27.890Z,96704.88
2023-02-24T13:59:40.926Z,96700.59
2023-02-24T14:02:18.203Z,96698.63
2023-02-24T14:04:54.047Z,96696.91
2023-02-24T14:07:31.844Z,96702.78
2023-02-24T14:10:18.564Z,96691.47
2023-02-24T14:13:00.373Z,96686.66
2023-02-24T14:15:35.831Z,96689.78
2023-02-24T14:18:20.892Z,96681.34
2023-02-24T14:20:56.596Z,96676.53
2023-02-24T14:23:32.873Z,96681.53
2023-02-24T14:26:09.945Z,96672.53
2023-02-24T14:28:43.593Z,96664.78
2023-02-24T14:31:23.509Z,96664.88
2023-02-24T14:34:01.521Z,96661.94
2023-02-24T14:36:38.204Z,96665.25
2023-02-24T14:39:17.427Z,96657.44
2023-02-24T14:41:52.600Z,96640.66
2023-02-24T14:44:27.969Z,96654.28
2023-02-24T14:47:06.497Z,96654.88
2023-02-24T14:49:39.853Z,96649.72
2023-02-24T14:52:19.431Z,96639.28
2023-02-24T14:54:58.346Z,96628.06
2023-02-24T14:57:35.853Z,96636.06
2023-02-24T15:00:17.393Z,96634.47
2023-02-24T15:02:57.926Z,96639.03
2023-02-24T15:05:31.178Z,96627.84
2023-02-24T15:08:04.907Z,96624.47
2023-02-24T15:10:38.128Z,96615.88
2023-02-24T15:13:18.652Z,96621.81
2023-02-24T15:15:51.798Z,96619.91
2023-02-24T15:18:28.765Z,96617.44
2023-02-24T15:21:03.452Z,96617.06
2023-02-24T15:23:38.900Z,96613.59
2023-02-24T15:26:27.616Z,96602.91
2023-02-24T15:29:02.979Z,96615.41
2023-02-24T15:31:36.216Z,96614.28
2023-02-24T15:34:20.925Z,96609.84
2023-02-24T15:37:01.224Z,96605.97
2023-02-24T15:39:36.890Z,96599.00
2023-02-24T15:42:21.880Z,96600.50
2023-02-24T15:44:56.885Z,96598.94
2023-02-24T15:47:33.334Z,96594.38
2023-02-24T15:50:09.245Z,96588.22
2023-02-24T15:52:42.702Z,96582.25
2023-02-24T15:55:17.708Z,96584.59
2023-02-24T15:57:59.400Z,96585.41
2023-02-24T16:00:32.626Z,96572.47
2023-02-24T16:03:05.687Z,96580.94
2023-02-24T16:05:40.415Z,96575.56
2023-02-24T16:08:18.829Z,96568.81
2023-02-24T16:10:53.450Z,96562.06
2023-02-24T16:13:27.774Z,96561.22
2023-02-24T16:16:00.873Z,96553.50
2023-02-24T16:18:34.598Z,96556.50
2023-02-24T16:21:09.165Z,96563.06
2023-02-24T16:23:42.263Z,96557.50
2023-02-24T16:26:19.183Z,96560.13
2023-02-24T16:28:56.106Z,96560.81
2023-02-24T16:31:29.451Z,96554.59
2023-02-24T16:34:02.898Z,96554.28
2023-02-24T16:36:42.719Z,96544.59
2023-02-24T16:39:15.807Z,96548.06
2023-02-24T16:41:48.847Z,96546.19
2023-02-24T16:44:23.179Z,96543.50
2023-02-24T16:46:56.230Z,96544.34
2023-02-24T16:49:29.534Z,96557.69
2023-02-24T16:52:04.192Z,96560.97
2023-02-24T16:54:38.014Z,96560.28
2023-02-24T16:57:11.018Z,96562.59
2023-02-24T16:59:44.068Z,96554.94
2023-02-24T17:02:22.472Z,96552.28
2023-02-24T17:04:55.553Z,96542.81
2023-02-24T17:07:29.992Z,96544.50
2023-02-24T17:10:03.052Z,96540.84
2023-02-24T17:12:36.157Z,96546.66
2023-02-24T17:15:13.757Z,96541.69
2023-02-24T17:17:47.187Z,96538.22
2023-02-24T17:20:21.828Z,96541.66
2023-02-24T17:22:56.274Z,96540.84
2023-02-24T17:25:31.579Z,96548.53
2023-02-24T17:28:06.347Z,96554.25
2023-02-24T17:30:40.179Z,96548.16
2023-02-24T17:33:14.426Z,96546.66
2023-02-24T17:35:48.750Z,96556.03
2023-02-24T17:38:24.230Z,96549.31
2023-02-24T17:40:57.604Z,96556.00
2023-02-24T17:43:30.756Z,96553.38
2023-02-24T17:46:07.144Z,96552.50
2023-02-24T17:48:40.500Z,96541.69
2023-02-24T17:51:15.136Z,96556.03
2023-02-24T17:53:49.814Z,96551.63
2023-02-24T17:56:23.177Z,96551.63
2023-02-24T17:58:58.932Z,96544.81
2023-02-24T18:01:32.085Z,96548.34
2023-02-24T18:04:07.924Z,96551.78
2023-02-24T18:06:41.031Z,96550.56
2023-02-24T18:09:15.461Z,96548.75
2023-02-24T18:11:48.527Z,96544.53
2023-02-24T18:14:21.912Z,96539.44
2023-02-24T18:16:55.060Z,96536.97
2023-02-24T18:19:28.072Z,96534.28
2023-02-24T18:22:01.076Z,96532.59
2023-02-24T18:24:35.452Z,96537.56
2023-02-24T18:27:09.259Z,96537.69
2023-02-24T18:29:42.767Z,96543.66
2023-02-24T18:32:16.112Z,96547.06
2023-02-24T18:34:49.850Z,96547.97
2023-02-24T18:37:23.152Z,96535.41
2023-02-24T18:39:57.617Z,96529.38
2023-02-24T18:42:30.661Z,96520.81
2023-02-24T18:45:03.739Z,96534.28
2023-02-24T18:47:36.823Z,96537.56
2023-02-24T18:50:11.687Z,96531.00
2023-02-24T18:52:45.626Z,96530.88
2023-02-24T18:55:22.191Z,96529.13
2023-02-24T18:57:55.250Z,96536.59
2023-02-24T19:00:28.338Z,96534.91
2023-02-24T19:03:01.485Z,96539.44
2023-02-24T19:05:38.849Z,96537.22
2023-02-24T19:08:12.145Z,96532.41
2023-02-24T19:10:46.530Z,96538.31
2023-02-24T19:13:19.747Z,96529.13
2023-02-24T19:15:52.849Z,96533.44
2023-02-24T19:18:25.883Z,96540.00
2023-02-24T19:20:58.995Z,96540.00
2023-02-24T19:23:32.070Z,96542.06
2023-02-24T19:26:07.470Z,96533.09
2023-02-24T19:28:40.580Z,96534.66
2023-02-24T19:31:16.003Z,96534.44
2023-02-24T19:33:53.711Z,96532.88
2023-02-24T19:36:29.643Z,96536.94
2023-02-24T19:39:03.056Z,96530.63
2023-02-24T19:41:38.311Z,96529.47
2023-02-24T19:44:12.672Z,96530.94
2023-02-24T19:46:45.937Z,96529.09
2023-02-24T19:49:18.963Z,96535.31
2023-02-24T19:51:54.968Z,96538.41
2023-02-24T19:54:29.052Z,96539.75
2023-02-24T19:57:03.501Z,96544.56
2023-02-24T19:59:36.510Z,96542.03
2023-02-24T20:02:11.575Z,96547.75
2023-02-24T20:04:44.828Z,96548.22
2023-02-24T20:07:17.861Z,96549.25
2023-02-24T20:09:50.890Z,96551.56
2023-02-24T20:12:25.242Z,96548.75
2023-02-24T20:14:58.414Z,96546.81
2023-02-24T20:17:31.538Z,96546.81
2023-02-24T20:20:05.977Z,96531.25
2023-02-24T20:22:39.669Z,96543.84
2023-02-24T20:25:12.674Z,96528.50
2023-02-24T20:27:47.051Z,96528.03
2023-02-24T20:30:20.304Z,96536.22
2023-02-24T20:32:53.886Z,96532.41
2023-02-24T20:35:28.332Z,96542.84
2023-02-24T20:38:01.362Z,96538.03
2023-02-24T20:40:34.449Z,96553.75
2023-02-24T20:43:10.834Z,96552.63
2023-02-24T20:45:43.870Z,96552.50
2023-02-24T20:48:16.926Z,96549.41
2023-02-24T20:50:49.985Z,96545.53
2023-02-24T20:53:23.036Z,96536.41
2023-02-24T20:56:02.667Z,96550.91
2023-02-24T20:58:37.076Z,96548.22
2023-02-24T21:01:12.831Z,96554.03
2023-02-24T21:03:47.098Z,96552.94
2023-02-24T21:06:20.393Z,96553.34
2023-02-24T21:08:54.084Z,96559.47
2023-02-24T21:11:29.725Z,96548.50
2023-02-24T21:14:05.880Z,96551.81
2023-02-24T21:16:39.356Z,96574.47
2023-02-24T21:19:13.165Z,96580.59
2023-02-24T21:21:48.107Z,96593.88
2023-02-24T21:24:24.047Z,96596.00
2023-02-24T21:26:57.091Z,96598.13
2023-02-24T21:29:31.743Z,96600.03
2023-02-24T21:32:05.374Z,96607.94
2023-02-24T21:34:38.454Z,96611.44
2023-02-24T21:37:11.456Z,96611.47
2023-02-24T21:39:44.459Z,96619.00
2023-02-24T21:42:17.480Z,96623.09
2023-02-24T21:44:51.976Z,96627.28
2023-02-24T21:47:25.246Z,96633.22
2023-02-24T21:49:58.267Z,96636.00
2023-02-24T21:52:31.596Z,96650.50
2023-02-24T21:55:05.483Z,96660.13
2023-02-24T21:57:41.248Z,96657.03
2023-02-24T22:00:21.012Z,96665.56
2023-02-24T22:02:56.325Z,96669.09
2023-02-24T22:05:29.373Z,96676.09
2023-02-24T22:08:02.398Z,96675.06
2023-02-24T22:10:35.404Z,96681.59
2023-02-24T22:13:08.526Z,96666.38
2023-02-24T22:15:42.919Z,96676.88
2023-02-24T22:18:15.989Z,96677.75
2023-02-24T22:20:49.081Z,96675.56
2023-02-24T22:23:22.203Z,96675.81
2023-02-24T22:25:55.215Z,96679.22
2023-02-24T22:28:28.335Z,96683.53
2023-02-24T22:31:03.398Z,96684.53
2023-02-24T22:33:40.915Z,96680.53
2023-02-24T22:36:16.358Z,96689.72
2023-02-24T22:38:49.804Z,96684.66
2023-02-24T22:41:25.438Z,96687.78
2023-02-24T22:43:58.811Z,96677.59
2023-02-24T22:46:35.752Z,96684.47
2023-02-24T22:49:08.853Z,96687.91
2023-02-24T22:51:42.201Z,96689.56
2023-02-24T22:54:15.636Z,96685.53
2023-02-24T22:56:48.717Z,96693.66
2023-02-24T22:59:21.711Z,96696.78
2023-02-24T23:01:56.168Z,96697.59
2023-02-24T23:04:29.849Z,96699.31
2023-02-24T23:07:02.961Z,96697.41
2023-02-24T23:09:36.099Z,96703.09
2023-02-24T23:12:11.651Z,96695.50
2023-02-24T23:14:44.853Z,96715.25
2023-02-24T23:17:19.241Z,96708.06
2023-02-24T23:19:52.328Z,96708.94
2023-02-24T23:22:25.361Z,96710.94
2023-02-24T23:24:58.372Z,96717.16
2023-02-24T23:27:31.401Z,96710.09
2023-02-24T23:30:05.388Z,96702.13
2023-02-24T23:32:39.847Z,96715.38
2023-02-24T23:35:13.537Z,96726.25
2023-02-24T23:37:46.696Z,96723.59
2023-02-24T23:40:25.847Z,96729.53
2023-02-24T23:42:59.162Z,96730.94
2023-02-24T23:45:32.297Z,96726.84
2023-02-24T23:48:07.233Z,96723.59
2023-02-24T23:50:42.400Z,96719.34
2023-02-24T23:53:15.419Z,96718.25
2023-02-24T23:55:48.504Z,96713.13
2023-02-24T23:58:21.587Z,96722.22
